createdAt,value
2022-12-13T00:01:52.100Z,9.20
2022-12-13T00:04:22.120Z,8.07
2022-12-13T00:06:50.584Z,9.03
2022-12-13T00:09:20.041Z,8.60
2022-12-13T00:11:49.647Z,9.60
2022-12-13T00:14:17.551Z,9.43
2022-12-13T00:16:49.262Z,7.60
2022-12-13T00:19:17.544Z,8.33
2022-12-13T00:21:45.176Z,10.90
2022-12-13T00:24:13.140Z,8.77
2022-12-13T00:26:40.407Z,9.73
2022-12-13T00:29:08.409Z,8.30
2022-12-13T00:31:58.687Z,8.10
2022-12-13T00:34:24.084Z,8.10
2022-12-13T00:36:51.300Z,9.10
2022-12-13T00:39:19.330Z,8.90
2022-12-13T00:41:47.049Z,8.03
2022-12-13T00:44:14.663Z,8.10
2022-12-13T00:46:42.131Z,9.77
2022-12-13T00:49:11.243Z,8.63
2022-12-13T00:51:39.129Z,8.93
2022-12-13T00:54:06.855Z,8.80
2022-12-13T00:56:34.716Z,8.43
2022-12-13T00:59:02.091Z,7.73
2022-12-13T01:01:34.375Z,8.77
2022-12-13T01:04:04.493Z,9.40
2022-12-13T01:06:45.019Z,7.93
2022-12-13T01:09:19.023Z,6.00
2022-12-13T01:11:47.229Z,7.50
2022-12-13T01:14:15.021Z,8.63
2022-12-13T01:16:42.228Z,9.40
2022-12-13T01:19:09.318Z,9.77
2022-12-13T01:21:36.495Z,10.20
2022-12-13T01:24:05.725Z,8.70
2022-12-13T01:26:33.598Z,8.90
2022-12-13T01:29:01.587Z,9.77
2022-12-13T01:31:29.183Z,9.90
2022-12-13T01:33:56.805Z,10.53
2022-12-13T01:36:27.733Z,9.47
2022-12-13T01:38:58.482Z,10.53
2022-12-13T01:41:28.641Z,10.40
2022-12-13T01:44:07.538Z,10.30
2022-12-13T01:46:36.300Z,9.03
2022-12-13T01:49:20.614Z,9.60
2022-12-13T01:52:01.425Z,9.20
2022-12-13T01:54:34.436Z,10.67
2022-12-13T01:57:17.805Z,8.30
2022-12-13T01:59:49.344Z,9.30
2022-12-13T02:02:17.118Z,9.50
2022-12-13T02:05:04.285Z,9.33
2022-12-13T02:07:34.626Z,9.40
2022-12-13T02:10:05.350Z,9.13
2022-12-13T02:12:35.377Z,9.70
2022-12-13T02:15:16.451Z,8.87
2022-12-13T02:18:21.984Z,9.80
2022-12-13T02:21:03.356Z,9.53
2022-12-13T02:24:19.946Z,8.67
2022-12-13T02:27:00.479Z,8.50
2022-12-13T02:29:46.534Z,8.33
2022-12-13T02:32:16.858Z,9.30
2022-12-13T02:35:10.220Z,8.00
2022-12-13T02:38:02.916Z,8.63
2022-12-13T02:40:39.493Z,8.57
2022-12-13T02:43:13.342Z,8.63
2022-12-13T02:45:53.814Z,8.77
2022-12-13T02:48:34.770Z,9.70
2022-12-13T02:51:06.949Z,9.60
2022-12-13T02:53:35.140Z,10.10
2022-12-13T02:56:02.255Z,9.53
2022-12-13T02:58:45.968Z,10.17
2022-12-13T03:01:39.984Z,8.67
2022-12-13T03:04:24.803Z,10.70
2022-12-13T03:07:39.598Z,9.43
2022-12-13T03:10:27.479Z,9.80
2022-12-13T03:13:22.108Z,8.90
2022-12-13T03:16:31.093Z,9.27
2022-12-13T03:19:01.952Z,10.90
2022-12-13T03:21:30.111Z,10.73
2022-12-13T03:23:57.275Z,10.00
2022-12-13T03:26:27.827Z,11.80
2022-12-13T03:28:55.327Z,10.17
2022-12-13T03:31:22.610Z,9.40
2022-12-13T03:33:49.740Z,10.87
2022-12-13T03:36:18.958Z,11.50
2022-12-13T03:38:48.270Z,10.20
2022-12-13T03:41:19.501Z,8.50
2022-12-13T03:43:47.064Z,10.87
2022-12-13T03:46:14.193Z,10.73
2022-12-13T03:48:41.518Z,9.50
2022-12-13T03:51:08.610Z,10.27
2022-12-13T03:53:35.737Z,10.27
2022-12-13T03:56:06.805Z,9.60
2022-12-13T03:58:37.739Z,9.97
2022-12-13T04:01:12.068Z,10.10
2022-12-13T04:03:41.442Z,11.03
2022-12-13T04:06:09.688Z,10.93
2022-12-13T04:08:39.030Z,9.80
2022-12-13T04:11:26.160Z,9.90
2022-12-13T04:13:54.992Z,12.20
2022-12-13T04:16:23.722Z,11.57
2022-12-13T04:18:51.464Z,11.73
2022-12-13T04:21:18.726Z,11.10
2022-12-13T04:23:45.981Z,11.50
2022-12-13T04:26:13.167Z,12.37
2022-12-13T04:28:40.290Z,9.80
2022-12-13T04:31:07.501Z,11.80
2022-12-13T04:33:35.494Z,11.00
2022-12-13T04:36:02.956Z,12.80
2022-12-13T04:38:30.084Z,23.30
2022-12-13T04:41:08.775Z,22.50
2022-12-13T04:43:35.856Z,18.53
2022-12-13T04:46:03.095Z,16.10
2022-12-13T04:48:32.481Z,15.37
2022-12-13T04:51:01.169Z,15.50
2022-12-13T04:53:30.285Z,13.47
2022-12-13T04:55:57.655Z,13.03
2022-12-13T04:58:24.716Z,13.97
2022-12-13T05:00:51.816Z,12.20
2022-12-13T05:03:18.997Z,11.13
2022-12-13T05:05:46.057Z,9.30
2022-12-13T05:08:13.394Z,10.97
2022-12-13T05:10:40.902Z,11.77
2022-12-13T05:13:08.147Z,11.27
2022-12-13T05:15:35.368Z,12.20
2022-12-13T05:18:10.172Z,10.67
2022-12-13T05:20:39.783Z,11.30
2022-12-13T05:23:06.991Z,10.63
2022-12-13T05:25:37.054Z,9.70
2022-12-13T05:28:26.851Z,9.40
2022-12-13T05:30:54.484Z,8.60
2022-12-13T05:33:22.868Z,9.30
2022-12-13T05:35:53.815Z,8.50
2022-12-13T05:38:23.435Z,8.97
2022-12-13T05:40:50.918Z,7.73
2022-12-13T05:43:21.295Z,7.10
2022-12-13T05:45:48.911Z,7.87
2022-12-13T05:48:24.265Z,7.23
2022-12-13T05:51:09.680Z,7.67
2022-12-13T05:53:42.201Z,7.30
2022-12-13T05:56:11.452Z,7.07
2022-12-13T05:58:40.503Z,7.57
2022-12-13T06:01:14.044Z,8.50
2022-12-13T06:03:42.086Z,8.83
2022-12-13T06:06:11.818Z,8.03
2022-12-13T06:08:39.609Z,9.50
2022-12-13T06:11:11.166Z,9.90
2022-12-13T06:13:52.584Z,10.83
2022-12-13T06:16:28.588Z,9.80
2022-12-13T06:19:03.593Z,9.37
2022-12-13T06:21:41.010Z,12.23
2022-12-13T06:24:17.660Z,10.43
2022-12-13T06:26:45.829Z,14.20
2022-12-13T06:29:24.540Z,16.97
2022-12-13T06:32:01.722Z,22.53
2022-12-13T06:34:33.952Z,21.10
2022-12-13T06:37:04.257Z,16.53
2022-12-13T06:39:32.956Z,16.50
2022-12-13T06:42:06.630Z,16.17
2022-12-13T06:44:35.104Z,16.10
2022-12-13T06:47:10.598Z,14.27
2022-12-13T06:49:41.939Z,12.50
2022-12-13T06:52:14.817Z,12.77
2022-12-13T06:54:43.641Z,12.93
2022-12-13T06:57:12.316Z,11.53
2022-12-13T06:59:39.946Z,12.23
2022-12-13T07:02:24.407Z,10.13
2022-12-13T07:04:54.126Z,8.67
2022-12-13T07:07:21.557Z,9.97
2022-12-13T07:09:48.735Z,10.57
2022-12-13T07:12:15.838Z,9.00
2022-12-13T07:14:43.004Z,9.17
2022-12-13T07:17:10.906Z,7.70
2022-12-13T07:19:38.249Z,9.60
2022-12-13T07:22:05.981Z,7.67
2022-12-13T07:24:35.083Z,8.53
2022-12-13T07:27:03.714Z,7.93
2022-12-13T07:29:31.494Z,8.30
2022-12-13T07:32:02.229Z,9.20
2022-12-13T07:34:30.955Z,7.43
2022-12-13T07:36:58.146Z,8.87
2022-12-13T07:39:26.325Z,8.97
2022-12-13T07:41:59.206Z,9.07
2022-12-13T07:44:27.291Z,8.40
2022-12-13T07:46:54.380Z,9.90
2022-12-13T07:49:21.491Z,9.50
2022-12-13T07:51:49.144Z,8.57
2022-12-13T07:54:16.380Z,7.47
2022-12-13T07:56:43.633Z,8.23
2022-12-13T07:59:11.308Z,8.87
2022-12-13T08:01:38.671Z,8.43
2022-12-13T08:04:06.279Z,9.67
2022-12-13T08:06:38.370Z,7.70
2022-12-13T08:09:06.238Z,8.53
2022-12-13T08:11:33.454Z,8.30
2022-12-13T08:14:00.717Z,8.23
2022-12-13T08:16:30.216Z,8.30
2022-12-13T08:19:01.675Z,8.60
2022-12-13T08:21:58.857Z,8.70
2022-12-13T08:24:30.603Z,7.03
2022-12-13T08:27:05.758Z,7.20
2022-12-13T08:29:35.969Z,6.73
2022-12-13T08:32:10.355Z,6.97
2022-12-13T08:34:38.262Z,8.10
2022-12-13T08:37:06.343Z,6.80
2022-12-13T08:39:37.428Z,6.77
2022-12-13T08:42:16.812Z,7.50
2022-12-13T08:44:50.844Z,7.00
2022-12-13T08:47:25.998Z,7.07
2022-12-13T08:50:04.195Z,6.70
2022-12-13T08:52:39.477Z,7.50
2022-12-13T08:55:13.779Z,7.80
2022-12-13T08:57:43.035Z,7.47
2022-12-13T09:00:19.396Z,7.40
2022-12-13T09:02:47.740Z,7.40
2022-12-13T09:05:33.891Z,8.50
2022-12-13T09:08:22.980Z,6.80
2022-12-13T09:11:01.090Z,6.93
2022-12-13T09:13:43.428Z,8.20
2022-12-13T09:16:24.422Z,9.30
2022-12-13T09:18:55.404Z,8.00
2022-12-13T09:21:31.724Z,8.23
2022-12-13T09:24:01.896Z,6.73
2022-12-13T09:26:29.841Z,7.67
2022-12-13T09:29:10.555Z,8.40
2022-12-13T09:31:40.614Z,7.93
2022-12-13T09:34:10.238Z,7.03
2022-12-13T09:36:37.916Z,8.67
2022-12-13T09:39:07.627Z,8.60
2022-12-13T09:41:40.702Z,8.23
2022-12-13T09:44:32.708Z,8.63
2022-12-13T09:47:27.544Z,9.33
2022-12-13T09:50:15.053Z,9.30
2022-12-13T09:52:44.916Z,8.50
2022-12-13T09:55:25.315Z,8.23
2022-12-13T09:57:53.164Z,8.80
2022-12-13T10:00:25.669Z,12.13
2022-12-13T10:02:58.513Z,9.30
2022-12-13T10:05:34.554Z,9.53
2022-12-13T10:08:15.040Z,9.40
2022-12-13T10:10:46.328Z,8.30
2022-12-13T10:13:21.175Z,11.73
2022-12-13T10:15:59.532Z,8.50
2022-12-13T10:18:38.902Z,9.97
2022-12-13T10:21:13.996Z,11.40
2022-12-13T10:24:15.695Z,10.80
2022-12-13T10:26:37.587Z,10.67
2022-12-13T10:29:06.979Z,10.30
2022-12-13T10:31:50.353Z,10.43
2022-12-13T10:34:30.829Z,11.00
2022-12-13T10:36:59.543Z,11.20
2022-12-13T10:39:40.655Z,11.63
2022-12-13T10:42:25.026Z,11.70
2022-12-13T10:45:23.636Z,10.17
2022-12-13T10:47:51.519Z,11.77
2022-12-13T10:50:28.858Z,11.23
2022-12-13T10:52:58.109Z,10.63
2022-12-13T10:55:38.022Z,11.10
2022-12-13T10:58:09.409Z,12.17
2022-12-13T11:00:47.344Z,11.77
2022-12-13T11:03:30.263Z,12.23
2022-12-13T11:06:18.093Z,13.07
2022-12-13T11:08:45.207Z,12.33
2022-12-13T11:11:13.137Z,11.97
2022-12-13T11:14:06.812Z,12.30
2022-12-13T11:16:41.714Z,11.67
2022-12-13T11:19:55.215Z,12.67
2022-12-13T11:22:31.098Z,11.80
2022-12-13T11:25:24.538Z,11.63
2022-12-13T11:28:27.432Z,11.77
2022-12-13T11:31:15.447Z,11.03
2022-12-13T11:33:48.051Z,11.27
2022-12-13T11:36:40.169Z,11.60
2022-12-13T11:39:38.270Z,10.80
2022-12-13T11:42:29.825Z,10.20
2022-12-13T11:45:23.164Z,8.07
2022-12-13T11:48:13.730Z,9.10
2022-12-13T11:50:45.299Z,9.27
2022-12-13T11:53:50.319Z,9.10
2022-12-13T11:56:27.534Z,7.57
2022-12-13T11:59:11.316Z,8.00
2022-12-13T12:01:51.930Z,7.00
2022-12-13T12:04:51.558Z,6.70
2022-12-13T12:08:12.867Z,9.60
2022-12-13T12:10:38.123Z,8.77
2022-12-13T12:13:15.909Z,7.73
2022-12-13T12:16:16.418Z,7.57
2022-12-13T12:18:44.223Z,6.53
2022-12-13T12:21:42.705Z,6.03
2022-12-13T12:24:30.409Z,6.47
2022-12-13T12:27:40.937Z,5.70
2022-12-13T12:30:24.305Z,6.90
2022-12-13T12:32:57.021Z,6.93
2022-12-13T12:36:05.282Z,9.07
2022-12-13T12:38:50.631Z,7.67
2022-12-13T12:41:48.109Z,8.57
2022-12-13T12:44:21.079Z,8.10
2022-12-13T12:47:28.572Z,6.10
2022-12-13T12:50:24.891Z,6.93
2022-12-13T12:53:21.282Z,8.10
2022-12-13T12:56:24.444Z,9.00
2022-12-13T12:59:12.603Z,8.63
2022-12-13T13:02:07.553Z,10.90
2022-12-13T13:04:42.447Z,10.07
2022-12-13T13:07:29.030Z,8.17
2022-12-13T13:09:58.029Z,8.47
2022-12-13T13:12:44.557Z,8.47
2022-12-13T13:15:33.796Z,7.80
2022-12-13T13:18:01.455Z,7.73
2022-12-13T13:20:29.701Z,9.60
2022-12-13T13:23:38.534Z,8.93
2022-12-13T13:28:42.660Z,7.47
2022-12-13T13:31:10.437Z,6.63
2022-12-13T13:33:57.902Z,8.20
2022-12-13T13:36:52.792Z,8.30
2022-12-13T13:39:54.152Z,9.10
2022-12-13T13:42:32.128Z,14.60
2022-12-13T13:45:26.953Z,9.67
2022-12-13T13:48:20.297Z,8.47
2022-12-13T13:50:56.185Z,9.90
2022-12-13T13:53:52.695Z,11.00
2022-12-13T13:56:35.540Z,9.50
2022-12-13T13:59:25.394Z,10.03
2022-12-13T14:02:27.047Z,9.90
2022-12-13T14:05:32.087Z,8.20
2022-12-13T14:08:39.479Z,9.10
2022-12-13T14:11:54.582Z,8.20
2022-12-13T14:15:02.609Z,7.10
2022-12-13T14:18:04.110Z,8.67
2022-12-13T14:20:53.243Z,8.73
2022-12-13T14:23:35.902Z,9.80
2022-12-13T14:26:43.503Z,13.27
2022-12-13T14:29:32.174Z,11.47
2022-12-13T14:31:59.545Z,10.20
2022-12-13T14:34:30.238Z,11.27
2022-12-13T14:37:17.034Z,12.13
2022-12-13T14:39:45.971Z,11.77
2022-12-13T14:42:29.865Z,11.40
2022-12-13T14:45:35.439Z,10.30
2022-12-13T14:48:11.037Z,9.70
2022-12-13T14:50:40.352Z,9.17
2022-12-13T14:53:20.479Z,10.80
2022-12-13T14:56:11.316Z,10.83
2022-12-13T14:59:11.435Z,10.90
2022-12-13T15:01:39.159Z,11.37
2022-12-13T15:04:22.182Z,12.03
2022-12-13T15:07:15.353Z,14.87
2022-12-13T15:09:45.712Z,10.70
2022-12-13T15:12:25.087Z,9.40
2022-12-13T15:15:27.114Z,8.97
2022-12-13T15:18:21.523Z,10.17
2022-12-13T15:20:57.319Z,8.67
2022-12-13T15:23:38.994Z,10.50
2022-12-13T15:26:28.313Z,9.77
2022-12-13T15:29:20.184Z,11.17
2022-12-13T15:31:49.148Z,10.90
2022-12-13T15:34:30.987Z,9.87
2022-12-13T15:37:02.620Z,10.20
2022-12-13T15:39:33.525Z,9.70
2022-12-13T15:42:00.754Z,9.03
2022-12-13T15:44:36.649Z,8.73
2022-12-13T15:47:28.487Z,8.87
2022-12-13T15:50:04.393Z,7.60
2022-12-13T15:52:38.453Z,8.33
2022-12-13T15:55:05.486Z,9.13
2022-12-13T15:57:35.283Z,10.23
2022-12-13T16:00:30.291Z,9.57
2022-12-13T16:03:17.322Z,9.60
2022-12-13T16:05:53.121Z,11.27
2022-12-13T16:08:40.726Z,10.73
2022-12-13T16:11:08.927Z,11.00
2022-12-13T16:13:38.323Z,11.23
2022-12-13T16:16:28.249Z,10.53
2022-12-13T16:19:00.661Z,17.07
2022-12-13T16:21:30.250Z,15.37
2022-12-13T16:23:57.625Z,13.83
2022-12-13T16:26:29.971Z,11.70
2022-12-13T16:29:00.529Z,11.67
2022-12-13T16:31:35.597Z,12.00
2022-12-13T16:34:04.820Z,11.63
2022-12-13T16:36:32.525Z,10.20
2022-12-13T16:38:59.888Z,9.73
2022-12-13T16:41:27.384Z,10.50
2022-12-13T16:44:02.139Z,11.63
2022-12-13T16:47:12.704Z,14.03
2022-12-13T16:49:22.590Z,11.60
2022-12-13T16:51:50.193Z,12.23
2022-12-13T16:54:22.459Z,11.87
2022-12-13T16:56:50.523Z,12.10
2022-12-13T16:59:22.458Z,10.30
2022-12-13T17:01:51.159Z,10.50
2022-12-13T17:04:22.874Z,12.17
2022-12-13T17:06:51.032Z,12.30
2022-12-13T17:09:23.391Z,11.87
2022-12-13T17:11:50.460Z,12.33
2022-12-13T17:14:17.551Z,12.67
2022-12-13T17:16:44.745Z,12.50
2022-12-13T17:19:14.673Z,14.60
2022-12-13T17:21:41.801Z,15.70
2022-12-13T17:24:09.021Z,16.73
2022-12-13T17:26:36.204Z,20.13
2022-12-13T17:29:03.381Z,18.17
2022-12-13T17:31:35.372Z,18.93
2022-12-13T17:34:04.351Z,16.87
2022-12-13T17:36:31.796Z,14.60
2022-12-13T17:38:59.604Z,16.10
2022-12-13T17:41:26.711Z,14.87
2022-12-13T17:44:02.896Z,13.53
2022-12-13T17:46:37.657Z,17.10
2022-12-13T17:49:05.592Z,14.70
2022-12-13T17:51:33.343Z,15.57
2022-12-13T17:54:00.439Z,16.03
2022-12-13T17:56:27.675Z,16.63
2022-12-13T17:58:54.841Z,15.30
2022-12-13T18:01:25.196Z,16.77
2022-12-13T18:03:55.641Z,15.20
2022-12-13T18:06:26.831Z,15.30
2022-12-13T18:08:54.665Z,14.80
2022-12-13T18:11:37.626Z,15.67
2022-12-13T18:14:07.259Z,17.37
2022-12-13T18:16:38.422Z,15.97
2022-12-13T18:19:09.195Z,16.00
2022-12-13T18:21:37.567Z,19.20
2022-12-13T18:24:08.106Z,19.03
2022-12-13T18:26:35.435Z,18.87
2022-12-13T18:29:03.915Z,15.60
2022-12-13T18:31:31.321Z,15.60
2022-12-13T18:33:59.789Z,15.73
2022-12-13T18:36:27.312Z,17.03
2022-12-13T18:38:54.772Z,15.70
2022-12-13T18:41:28.534Z,16.13
2022-12-13T18:44:00.009Z,18.20
2022-12-13T18:46:30.253Z,17.07
2022-12-13T18:48:58.598Z,16.40
2022-12-13T18:51:30.654Z,16.73
2022-12-13T18:54:00.471Z,16.23
2022-12-13T18:56:28.598Z,16.60
2022-12-13T18:58:59.226Z,16.97
2022-12-13T19:01:28.533Z,16.60
2022-12-13T19:03:56.255Z,17.07
2022-12-13T19:06:27.594Z,18.23
2022-12-13T19:08:57.608Z,18.00
2022-12-13T19:11:27.011Z,18.40
2022-12-13T19:13:55.045Z,19.03
2022-12-13T19:16:24.803Z,18.50
2022-12-13T19:18:51.962Z,17.40
2022-12-13T19:21:21.924Z,18.10
2022-12-13T19:23:56.483Z,19.90
2022-12-13T19:26:27.335Z,16.70
2022-12-13T19:28:57.065Z,16.43
2022-12-13T19:31:30.512Z,18.37
2022-12-13T19:34:00.886Z,16.40
2022-12-13T19:36:28.630Z,18.07
2022-12-13T19:38:56.237Z,16.50
2022-12-13T19:41:23.489Z,15.80
2022-12-13T19:43:52.948Z,16.30
2022-12-13T19:46:21.399Z,17.80
2022-12-13T19:48:48.793Z,16.77
2022-12-13T19:51:16.378Z,18.10
2022-12-13T19:53:43.487Z,17.53
2022-12-13T19:56:17.746Z,18.53
2022-12-13T19:58:47.210Z,19.97
2022-12-13T20:01:14.977Z,20.50
2022-12-13T20:03:45.627Z,19.53
2022-12-13T20:06:17.206Z,18.93
2022-12-13T20:08:45.167Z,18.97
2022-12-13T20:11:22.359Z,19.37
2022-12-13T20:13:53.741Z,18.67
2022-12-13T20:16:24.978Z,19.00
2022-12-13T20:19:00.499Z,17.73
2022-12-13T20:21:29.267Z,17.83
2022-12-13T20:23:57.824Z,16.40
2022-12-13T20:26:28.209Z,18.17
2022-12-13T20:28:56.249Z,15.60
2022-12-13T20:31:37.093Z,14.07
2022-12-13T20:34:10.084Z,14.23
2022-12-13T20:36:37.650Z,14.37
2022-12-13T20:39:06.732Z,14.53
2022-12-13T20:41:35.946Z,14.97
2022-12-13T20:44:05.931Z,14.10
2022-12-13T20:46:33.468Z,13.50
2022-12-13T20:49:04.384Z,16.27
2022-12-13T20:51:32.769Z,16.10
2022-12-13T20:54:00.846Z,14.00
2022-12-13T20:56:35.274Z,15.63
2022-12-13T20:59:04.387Z,15.20
2022-12-13T21:01:35.272Z,15.00
2022-12-13T21:04:05.423Z,16.83
2022-12-13T21:06:38.638Z,16.50
2022-12-13T21:09:06.737Z,15.37
2022-12-13T21:11:36.159Z,15.83
2022-12-13T21:14:28.541Z,16.23
2022-12-13T21:17:01.831Z,14.90
2022-12-13T21:19:39.065Z,14.70
2022-12-13T21:22:06.843Z,14.37
2022-12-13T21:24:34.100Z,15.00
2022-12-13T21:27:01.269Z,15.43
2022-12-13T21:29:28.399Z,14.00
2022-12-13T21:31:56.188Z,14.53
2022-12-13T21:34:23.784Z,15.47
2022-12-13T21:36:52.624Z,14.07
2022-12-13T21:39:30.984Z,14.90
2022-12-13T21:41:58.353Z,14.30
2022-12-13T21:44:25.498Z,14.30
2022-12-13T21:47:11.969Z,15.37
2022-12-13T21:49:39.810Z,16.53
2022-12-13T21:52:06.905Z,14.83
2022-12-13T21:54:33.997Z,15.10
2022-12-13T21:57:20.102Z,14.10
2022-12-13T21:59:47.193Z,15.80
2022-12-13T22:02:18.499Z,14.83
2022-12-13T22:04:55.336Z,14.03
2022-12-13T22:07:24.912Z,14.70
2022-12-13T22:09:53.358Z,14.93
2022-12-13T22:12:29.741Z,14.43
2022-12-13T22:14:56.789Z,14.23
2022-12-13T22:17:33.006Z,14.40
2022-12-13T22:20:02.745Z,14.40
2022-12-13T22:22:31.249Z,12.80
2022-12-13T22:24:58.486Z,12.80
2022-12-13T22:27:26.155Z,14.40
2022-12-13T22:29:57.722Z,13.73
2022-12-13T22:32:27.490Z,13.70
2022-12-13T22:34:55.071Z,15.00
2022-12-13T22:37:23.230Z,15.03
2022-12-13T22:39:50.907Z,13.10
2022-12-13T22:42:19.481Z,15.87
2022-12-13T22:44:46.581Z,14.83
2022-12-13T22:47:13.740Z,13.60
2022-12-13T22:49:40.871Z,13.10
2022-12-13T22:52:08.353Z,15.33
2022-12-13T22:54:35.945Z,13.83
2022-12-13T22:57:03.574Z,14.10
2022-12-13T22:59:31.041Z,15.00
2022-12-13T23:02:02.059Z,13.43
2022-12-13T23:04:32.753Z,13.70
2022-12-13T23:07:00.066Z,12.40
2022-12-13T23:09:27.187Z,13.20
2022-12-13T23:12:12.661Z,14.43
2022-12-13T23:14:39.822Z,12.03
2022-12-13T23:17:07.314Z,13.10
2022-12-13T23:19:51.451Z,12.83
2022-12-13T23:22:25.476Z,11.70
2022-12-13T23:24:53.522Z,11.97
2022-12-13T23:27:23.285Z,12.70
2022-12-13T23:29:50.466Z,12.77
2022-12-13T23:32:17.905Z,14.17
2022-12-13T23:34:45.122Z,12.40
2022-12-13T23:37:12.236Z,13.13
2022-12-13T23:39:39.379Z,12.27
2022-12-13T23:42:06.456Z,13.50
2022-12-13T23:44:33.713Z,13.33
2022-12-13T23:47:00.849Z,12.80
2022-12-13T23:49:28.217Z,12.47
2022-12-13T23:51:55.327Z,12.10
2022-12-13T23:54:22.483Z,13.63
2022-12-13T23:56:49.554Z,13.70
2022-12-13T23:59:16.683Z,13.43
